createdAt,value
2023-05-01T00:01:35.243Z,69.25
2023-05-01T00:04:03.413Z,69.36
2023-05-01T00:06:33.449Z,69.37
2023-05-01T00:09:01.740Z,69.31
2023-05-01T00:11:29.892Z,69.33
2023-05-01T00:13:59.346Z,69.46
2023-05-01T00:16:27.462Z,69.40
2023-05-01T00:18:55.527Z,69.54
2023-05-01T00:21:23.595Z,69.56
2023-05-01T00:23:51.858Z,69.65
2023-05-01T00:26:19.938Z,69.55
2023-05-01T00:28:48.044Z,69.50
2023-05-01T00:31:18.318Z,69.36
2023-05-01T00:33:46.471Z,69.42
2023-05-01T00:36:14.756Z,69.41
2023-05-01T00:38:42.833Z,69.61
2023-05-01T00:41:10.885Z,69.54
2023-05-01T00:43:38.968Z,69.61
2023-05-01T00:46:07.260Z,69.64
2023-05-01T00:48:37.435Z,69.64
2023-05-01T00:51:06.851Z,69.68
2023-05-01T00:53:35.118Z,69.61
2023-05-01T00:56:04.171Z,69.67
2023-05-01T00:58:32.280Z,69.89
2023-05-01T01:01:01.201Z,69.95
2023-05-01T01:03:29.260Z,70.08
2023-05-01T01:06:06.040Z,69.97
2023-05-01T01:08:39.014Z,70.01
2023-05-01T01:11:15.025Z,70.11
2023-05-01T01:13:48.431Z,69.92
2023-05-01T01:16:22.590Z,70.01
2023-05-01T01:18:57.401Z,70.06
2023-05-01T01:21:32.040Z,70.11
2023-05-01T01:24:27.779Z,70.09
2023-05-01T01:27:37.011Z,70.01
2023-05-01T01:30:29.431Z,70.04
2023-05-01T01:33:14.938Z,69.99
2023-05-01T01:35:51.957Z,70.02
2023-05-01T01:38:23.676Z,70.05
2023-05-01T01:40:56.563Z,70.04
2023-05-01T01:43:27.091Z,69.84
2023-05-01T01:45:59.103Z,70.00
2023-05-01T01:48:32.062Z,69.82
2023-05-01T01:51:02.719Z,69.77
2023-05-01T01:53:32.386Z,69.77
2023-05-01T01:56:03.608Z,69.67
2023-05-01T01:58:32.511Z,69.64
2023-05-01T02:01:00.901Z,69.69
2023-05-01T02:03:30.399Z,69.57
2023-05-01T02:05:59.560Z,69.68
2023-05-01T02:08:30.298Z,69.62
2023-05-01T02:11:02.107Z,69.48
2023-05-01T02:13:32.489Z,69.65
2023-05-01T02:16:01.762Z,69.60
2023-05-01T02:18:30.895Z,69.61
2023-05-01T02:20:59.676Z,69.75
2023-05-01T02:23:30.957Z,69.41
2023-05-01T02:26:00.800Z,69.50
2023-05-01T02:28:30.421Z,69.40
2023-05-01T02:30:58.484Z,69.38
2023-05-01T02:33:26.759Z,69.30
2023-05-01T02:35:54.854Z,69.16
2023-05-01T02:38:22.934Z,69.17
2023-05-01T02:40:56.048Z,69.22
2023-05-01T02:43:26.646Z,69.20
2023-05-01T02:45:56.073Z,69.13
2023-05-01T02:48:28.019Z,69.17
2023-05-01T02:50:57.525Z,69.10
2023-05-01T02:53:25.564Z,69.20
2023-05-01T02:55:54.979Z,69.14
2023-05-01T02:58:23.611Z,69.15
2023-05-01T03:00:51.823Z,69.20
2023-05-01T03:03:20.053Z,69.21
2023-05-01T03:05:48.652Z,69.31
2023-05-01T03:08:17.241Z,69.32
2023-05-01T03:10:45.321Z,69.36
2023-05-01T03:13:14.779Z,69.24
2023-05-01T03:15:43.286Z,69.32
2023-05-01T03:18:11.523Z,69.39
2023-05-01T03:20:39.583Z,69.46
2023-05-01T03:23:07.691Z,69.63
2023-05-01T03:25:35.768Z,69.57
2023-05-01T03:28:04.108Z,69.68
2023-05-01T03:30:34.946Z,69.81
2023-05-01T03:33:03.356Z,69.75
2023-05-01T03:35:31.640Z,69.92
2023-05-01T03:37:59.882Z,69.88
2023-05-01T03:40:27.944Z,69.83
2023-05-01T03:42:56.047Z,69.75
2023-05-01T03:45:24.615Z,69.58
2023-05-01T03:47:54.246Z,69.59
2023-05-01T03:50:22.282Z,69.60
2023-05-01T03:52:50.376Z,69.52
2023-05-01T03:55:18.599Z,69.47
2023-05-01T03:57:47.240Z,69.26
2023-05-01T04:00:15.543Z,69.20
2023-05-01T04:02:43.687Z,69.26
2023-05-01T04:05:13.447Z,69.24
2023-05-01T04:07:42.054Z,69.29
2023-05-01T04:10:10.735Z,69.13
2023-05-01T04:12:38.804Z,69.10
2023-05-01T04:15:08.557Z,68.99
2023-05-01T04:17:37.161Z,68.71
2023-05-01T04:20:06.302Z,68.63
2023-05-01T04:22:35.728Z,68.60
2023-05-01T04:25:04.773Z,68.40
2023-05-01T04:27:32.874Z,68.32
2023-05-01T04:30:01.103Z,68.13
2023-05-01T04:32:29.168Z,68.10
2023-05-01T04:34:57.836Z,67.98
2023-05-01T04:37:26.021Z,67.76
2023-05-01T04:39:55.848Z,67.65
2023-05-01T04:42:24.288Z,67.51
2023-05-01T04:44:52.442Z,67.00
2023-05-01T04:47:20.860Z,66.89
2023-05-01T04:49:48.923Z,66.56
2023-05-01T04:52:17.370Z,66.29
2023-05-01T04:54:45.434Z,65.83
2023-05-01T04:57:14.833Z,65.44
2023-05-01T04:59:43.272Z,65.32
2023-05-01T05:02:11.382Z,64.90
2023-05-01T05:04:39.482Z,64.83
2023-05-01T05:07:09.141Z,64.51
2023-05-01T05:09:37.363Z,64.63
2023-05-01T05:12:05.972Z,64.37
2023-05-01T05:14:35.475Z,64.15
2023-05-01T05:17:03.521Z,63.88
2023-05-01T05:19:31.597Z,63.54
2023-05-01T05:21:59.641Z,63.16
2023-05-01T05:24:27.699Z,62.89
2023-05-01T05:26:55.755Z,62.85
2023-05-01T05:29:23.843Z,62.33
2023-05-01T05:31:53.300Z,62.02
2023-05-01T05:34:21.367Z,61.83
2023-05-01T05:36:49.517Z,61.39
2023-05-01T05:39:17.588Z,61.22
2023-05-01T05:41:45.643Z,60.61
2023-05-01T05:44:13.713Z,60.42
2023-05-01T05:46:41.862Z,59.99
2023-05-01T05:49:11.324Z,59.62
2023-05-01T05:51:39.421Z,59.39
2023-05-01T05:54:07.514Z,59.27
2023-05-01T05:56:35.584Z,59.44
2023-05-01T05:59:04.675Z,59.82
2023-05-01T06:01:32.862Z,58.94
2023-05-01T06:04:01.056Z,58.85
2023-05-01T06:06:31.452Z,58.45
2023-05-01T06:09:00.183Z,58.26
2023-05-01T06:11:28.281Z,57.82
2023-05-01T06:13:57.352Z,57.81
2023-05-01T06:16:25.652Z,57.64
2023-05-01T06:18:53.822Z,57.44
2023-05-01T06:21:21.931Z,57.16
2023-05-01T06:23:51.389Z,56.37
2023-05-01T06:26:19.458Z,56.37
2023-05-01T06:28:47.519Z,55.62
2023-05-01T06:31:15.626Z,55.43
2023-05-01T06:33:43.751Z,55.19
2023-05-01T06:36:11.844Z,55.11
2023-05-01T06:38:40.618Z,54.28
2023-05-01T06:41:10.080Z,54.00
2023-05-01T06:43:38.145Z,54.55
2023-05-01T06:46:06.266Z,53.64
2023-05-01T06:48:34.382Z,52.43
2023-05-01T06:51:02.442Z,51.94
2023-05-01T06:53:30.663Z,51.34
2023-05-01T06:55:58.775Z,51.41
2023-05-01T06:58:28.201Z,50.63
2023-05-01T07:00:56.473Z,50.22
2023-05-01T07:03:24.680Z,50.19
2023-05-01T07:05:52.763Z,50.08
2023-05-01T07:08:21.432Z,49.92
2023-05-01T07:10:50.491Z,49.56
2023-05-01T07:13:19.501Z,49.07
2023-05-01T07:15:49.104Z,48.93
2023-05-01T07:18:17.241Z,48.63
2023-05-01T07:20:45.620Z,48.31
2023-05-01T07:23:13.719Z,48.34
2023-05-01T07:25:44.391Z,48.26
2023-05-01T07:28:12.542Z,48.49
2023-05-01T07:30:40.645Z,48.40
2023-05-01T07:33:10.069Z,48.16
2023-05-01T07:35:38.223Z,47.37
2023-05-01T07:38:06.261Z,46.93
2023-05-01T07:40:34.472Z,47.16
2023-05-01T07:43:02.575Z,46.37
2023-05-01T07:45:30.661Z,45.42
2023-05-01T07:47:58.797Z,45.23
2023-05-01T07:50:28.829Z,45.12
2023-05-01T07:52:57.395Z,44.87
2023-05-01T07:55:25.652Z,44.05
2023-05-01T07:57:53.749Z,43.86
2023-05-01T08:00:22.101Z,42.92
2023-05-01T08:02:50.224Z,42.09
2023-05-01T08:05:18.409Z,41.49
2023-05-01T08:07:47.899Z,41.25
2023-05-01T08:10:16.242Z,41.62
2023-05-01T08:12:44.382Z,41.04
2023-05-01T08:15:12.457Z,40.18
2023-05-01T08:17:40.585Z,41.06
2023-05-01T08:20:09.889Z,40.24
2023-05-01T08:22:37.997Z,39.99
2023-05-01T08:25:08.672Z,41.12
2023-05-01T08:27:36.818Z,41.28
2023-05-01T08:30:05.758Z,39.70
2023-05-01T08:32:33.892Z,39.08
2023-05-01T08:35:02.070Z,38.56
2023-05-01T08:37:30.171Z,38.71
2023-05-01T08:39:58.456Z,39.03
2023-05-01T08:42:29.433Z,39.25
2023-05-01T08:45:00.466Z,37.53
2023-05-01T08:47:29.258Z,38.04
2023-05-01T08:49:59.130Z,37.57
2023-05-01T08:52:28.277Z,37.71
2023-05-01T08:54:57.250Z,37.56
2023-05-01T08:57:25.610Z,37.19
2023-05-01T08:59:58.160Z,36.79
2023-05-01T09:02:27.748Z,37.32
2023-05-01T09:04:55.953Z,37.18
2023-05-01T09:07:24.058Z,37.17
2023-05-01T09:09:52.160Z,37.35
2023-05-01T09:12:24.444Z,35.90
2023-05-01T09:14:53.214Z,35.63
2023-05-01T09:17:23.932Z,35.46
2023-05-01T09:19:52.426Z,34.29
2023-05-01T09:22:20.846Z,33.99
2023-05-01T09:24:48.979Z,32.96
2023-05-01T09:27:17.285Z,32.87
2023-05-01T09:29:46.640Z,33.01
2023-05-01T09:32:16.685Z,33.06
2023-05-01T09:34:46.273Z,33.45
2023-05-01T09:37:25.499Z,33.34
2023-05-01T09:40:09.678Z,33.82
2023-05-01T09:42:39.475Z,33.92
2023-05-01T09:45:14.962Z,33.79
2023-05-01T09:47:43.771Z,32.95
2023-05-01T09:50:29.019Z,33.61
2023-05-01T09:52:57.138Z,33.04
2023-05-01T09:55:25.840Z,32.50
2023-05-01T09:57:54.531Z,32.00
2023-05-01T10:00:22.806Z,31.42
2023-05-01T10:02:51.423Z,32.78
2023-05-01T10:05:21.207Z,32.74
2023-05-01T10:07:58.335Z,31.22
2023-05-01T10:10:26.549Z,30.88
2023-05-01T10:12:54.974Z,30.18
2023-05-01T10:15:26.623Z,29.74
2023-05-01T10:17:55.500Z,29.51
2023-05-01T10:20:25.938Z,29.15
2023-05-01T10:22:55.375Z,27.90
2023-05-01T10:25:23.878Z,27.02
2023-05-01T10:27:52.962Z,26.19
2023-05-01T10:30:22.218Z,26.24
2023-05-01T10:32:50.655Z,26.89
2023-05-01T10:35:22.680Z,26.98
2023-05-01T10:37:59.815Z,26.52
2023-05-01T10:40:48.603Z,26.68
2023-05-01T10:43:19.008Z,26.25
2023-05-01T10:45:48.091Z,26.15
2023-05-01T10:48:49.740Z,27.09
2023-05-01T10:51:20.451Z,26.07
2023-05-01T10:53:50.875Z,25.80
2023-05-01T10:56:44.302Z,26.57
2023-05-01T10:59:13.066Z,26.67
2023-05-01T11:01:43.052Z,26.54
2023-05-01T11:04:44.319Z,26.37
2023-05-01T11:07:17.770Z,26.56
2023-05-01T11:09:49.324Z,26.46
2023-05-01T11:12:37.805Z,27.09
2023-05-01T11:15:08.244Z,25.99
2023-05-01T11:17:50.265Z,26.53
2023-05-01T11:21:01.948Z,26.61
2023-05-01T11:23:30.182Z,26.11
2023-05-01T11:26:06.227Z,26.68
2023-05-01T11:28:34.805Z,25.79
2023-05-01T11:31:03.398Z,25.85
2023-05-01T11:33:31.833Z,25.75
2023-05-01T11:36:01.297Z,25.29
2023-05-01T11:38:29.627Z,24.82
2023-05-01T11:41:03.747Z,25.90
2023-05-01T11:43:33.406Z,25.05
2023-05-01T11:46:04.405Z,24.62
2023-05-01T11:48:32.984Z,25.15
2023-05-01T11:51:01.127Z,24.30
2023-05-01T11:53:30.011Z,23.89
2023-05-01T11:55:59.446Z,24.39
2023-05-01T11:58:36.505Z,24.67
2023-05-01T12:01:07.302Z,24.68
2023-05-01T12:03:45.262Z,25.27
2023-05-01T12:06:14.328Z,24.88
2023-05-01T12:08:50.444Z,26.00
2023-05-01T12:11:20.617Z,25.84
2023-05-01T12:13:50.310Z,26.87
2023-05-01T12:16:18.674Z,25.86
2023-05-01T12:18:48.169Z,24.43
2023-05-01T12:21:18.164Z,24.97
2023-05-01T12:23:46.543Z,25.14
2023-05-01T12:26:18.717Z,25.29
2023-05-01T12:28:58.743Z,25.47
2023-05-01T12:31:27.745Z,25.49
2023-05-01T12:33:56.754Z,25.30
2023-05-01T12:36:27.227Z,25.08
2023-05-01T12:39:03.455Z,25.88
2023-05-01T12:41:39.116Z,26.51
2023-05-01T12:44:20.380Z,26.56
2023-05-01T12:46:55.519Z,27.25
2023-05-01T12:49:24.920Z,26.60
2023-05-01T12:51:54.101Z,25.73
2023-05-01T12:54:23.398Z,26.17
2023-05-01T12:56:53.191Z,26.99
2023-05-01T12:59:23.982Z,26.33
2023-05-01T13:01:59.457Z,27.00
2023-05-01T13:04:28.281Z,27.54
2023-05-01T13:06:57.061Z,26.83
2023-05-01T13:09:27.215Z,26.94
2023-05-01T13:11:58.654Z,27.35
2023-05-01T13:14:28.496Z,28.34
2023-05-01T13:16:56.935Z,29.26
2023-05-01T13:19:29.141Z,28.35
2023-05-01T13:21:57.962Z,28.52
2023-05-01T13:24:36.611Z,29.55
2023-05-01T13:27:06.257Z,28.85
2023-05-01T13:29:36.298Z,28.36
2023-05-01T13:32:05.732Z,29.80
2023-05-01T13:34:36.376Z,29.09
2023-05-01T13:37:04.869Z,29.80
2023-05-01T13:39:32.933Z,29.17
2023-05-01T13:42:03.888Z,29.01
2023-05-01T13:44:32.245Z,29.53
2023-05-01T13:47:02.829Z,29.21
2023-05-01T13:49:30.945Z,29.72
2023-05-01T13:51:59.043Z,30.62
2023-05-01T13:54:27.726Z,31.24
2023-05-01T13:56:55.773Z,30.51
2023-05-01T13:59:23.872Z,30.47
2023-05-01T14:01:52.288Z,30.16
2023-05-01T14:04:21.784Z,31.35
2023-05-01T14:06:50.040Z,30.86
2023-05-01T14:09:19.357Z,31.00
2023-05-01T14:11:48.815Z,31.52
2023-05-01T14:14:17.699Z,31.21
2023-05-01T14:16:48.880Z,30.89
2023-05-01T14:19:18.456Z,31.71
2023-05-01T14:21:48.001Z,32.55
2023-05-01T14:24:17.966Z,32.33
2023-05-01T14:26:48.903Z,32.09
2023-05-01T14:29:24.921Z,32.05
2023-05-01T14:31:54.493Z,33.25
2023-05-01T14:34:22.583Z,32.21
2023-05-01T14:36:52.044Z,32.51
2023-05-01T14:39:20.256Z,33.07
2023-05-01T14:41:48.594Z,33.30
2023-05-01T14:44:17.501Z,33.75
2023-05-01T14:46:49.547Z,33.45
2023-05-01T14:49:20.014Z,33.81
2023-05-01T14:51:48.229Z,34.16
2023-05-01T14:54:17.949Z,34.37
2023-05-01T14:56:46.944Z,35.23
2023-05-01T14:59:15.259Z,36.17
2023-05-01T15:01:44.032Z,36.79
2023-05-01T15:04:13.167Z,36.00
2023-05-01T15:06:41.381Z,35.94
2023-05-01T15:09:09.761Z,36.56
2023-05-01T15:11:39.216Z,35.39
2023-05-01T15:14:07.282Z,36.03
2023-05-01T15:16:35.499Z,36.08
2023-05-01T15:19:03.629Z,35.57
2023-05-01T15:21:31.708Z,35.85
2023-05-01T15:23:59.825Z,36.09
2023-05-01T15:26:27.936Z,36.58
2023-05-01T15:28:57.378Z,36.93
2023-05-01T15:31:25.523Z,37.07
2023-05-01T15:33:53.605Z,37.83
2023-05-01T15:36:21.717Z,37.44
2023-05-01T15:38:49.802Z,37.48
2023-05-01T15:41:19.243Z,37.25
2023-05-01T15:43:47.781Z,38.09
2023-05-01T15:46:18.306Z,38.50
2023-05-01T15:48:46.797Z,37.84
2023-05-01T15:51:14.875Z,38.69
2023-05-01T15:53:42.949Z,38.78
2023-05-01T15:56:11.099Z,38.87
2023-05-01T15:58:39.331Z,38.45
2023-05-01T16:01:08.869Z,38.65
2023-05-01T16:03:40.776Z,38.95
2023-05-01T16:06:09.537Z,38.94
2023-05-01T16:08:37.722Z,39.11
2023-05-01T16:11:05.802Z,38.75
2023-05-01T16:13:38.581Z,38.48
2023-05-01T16:16:09.233Z,38.31
2023-05-01T16:18:41.711Z,37.88
2023-05-01T16:21:11.006Z,38.06
2023-05-01T16:23:40.233Z,39.47
2023-05-01T16:26:08.315Z,38.85
2023-05-01T16:28:36.822Z,38.79
2023-05-01T16:31:12.959Z,38.55
2023-05-01T16:33:50.179Z,38.70
2023-05-01T16:36:18.516Z,38.67
2023-05-01T16:38:47.173Z,38.52
2023-05-01T16:41:17.513Z,38.66
2023-05-01T16:43:46.257Z,38.31
2023-05-01T16:46:16.493Z,37.82
2023-05-01T16:48:44.626Z,37.67
2023-05-01T16:51:14.155Z,38.09
2023-05-01T16:53:42.227Z,38.93
2023-05-01T16:56:10.963Z,39.05
2023-05-01T16:58:39.114Z,38.94
2023-05-01T17:01:07.330Z,38.69
2023-05-01T17:03:36.925Z,39.01
2023-05-01T17:06:05.085Z,39.68
2023-05-01T17:08:34.632Z,39.71
2023-05-01T17:11:03.493Z,39.95
2023-05-01T17:13:31.592Z,40.84
2023-05-01T17:15:59.880Z,40.91
2023-05-01T17:18:27.950Z,40.76
2023-05-01T17:20:56.042Z,41.32
2023-05-01T17:23:24.132Z,41.88
2023-05-01T17:25:53.596Z,41.07
2023-05-01T17:28:21.660Z,40.44
2023-05-01T17:30:50.808Z,40.05
2023-05-01T17:33:18.948Z,39.93
2023-05-01T17:35:47.154Z,40.64
2023-05-01T17:38:15.212Z,40.64
2023-05-01T17:40:43.261Z,40.79
2023-05-01T17:43:12.819Z,40.64
2023-05-01T17:45:41.090Z,40.71
2023-05-01T17:48:09.298Z,40.82
2023-05-01T17:50:37.468Z,42.01
2023-05-01T17:53:05.604Z,42.09
2023-05-01T17:55:35.968Z,42.73
2023-05-01T17:58:04.043Z,42.57
2023-05-01T18:00:33.654Z,43.05
2023-05-01T18:03:01.863Z,43.18
2023-05-01T18:05:30.019Z,43.38
2023-05-01T18:07:58.065Z,43.68
2023-05-01T18:10:30.223Z,43.87
2023-05-01T18:12:58.292Z,43.83
2023-05-01T18:15:26.394Z,43.91
2023-05-01T18:17:55.967Z,43.74
2023-05-01T18:20:24.187Z,44.65
2023-05-01T18:22:54.452Z,45.24
2023-05-01T18:25:22.510Z,45.20
2023-05-01T18:27:50.792Z,45.00
2023-05-01T18:30:18.946Z,45.33
2023-05-01T18:32:49.074Z,45.70
2023-05-01T18:35:19.043Z,46.15
2023-05-01T18:37:47.340Z,46.33
2023-05-01T18:40:15.516Z,46.98
2023-05-01T18:42:43.714Z,47.37
2023-05-01T18:45:12.042Z,47.69
2023-05-01T18:47:40.183Z,47.82
2023-05-01T18:50:09.670Z,48.75
2023-05-01T18:52:39.118Z,48.87
2023-05-01T18:55:08.037Z,49.81
2023-05-01T18:57:36.111Z,50.43
2023-05-01T19:00:04.757Z,50.85
2023-05-01T19:02:32.894Z,50.76
2023-05-01T19:05:01.108Z,51.11
2023-05-01T19:07:29.211Z,51.34
2023-05-01T19:09:58.896Z,53.29
2023-05-01T19:12:27.268Z,53.10
2023-05-01T19:14:55.377Z,54.15
2023-05-01T19:17:23.490Z,54.63
2023-05-01T19:19:51.581Z,55.18
2023-05-01T19:22:19.775Z,55.79
2023-05-01T19:24:47.835Z,56.27
2023-05-01T19:27:18.109Z,56.58
2023-05-01T19:29:46.224Z,57.02
2023-05-01T19:32:14.493Z,57.24
2023-05-01T19:34:42.673Z,57.92
2023-05-01T19:37:10.764Z,58.48
2023-05-01T19:39:39.883Z,59.16
2023-05-01T19:42:08.102Z,59.57
2023-05-01T19:44:37.580Z,59.94
2023-05-01T19:47:05.676Z,60.43
2023-05-01T19:49:33.944Z,60.64
2023-05-01T19:52:02.029Z,61.04
2023-05-01T19:54:30.106Z,60.69
2023-05-01T19:56:58.836Z,60.25
2023-05-01T19:59:27.050Z,60.48
2023-05-01T20:04:25.378Z,60.96
2023-05-01T20:06:53.536Z,60.86
2023-05-01T20:09:21.621Z,61.06
2023-05-01T20:11:49.661Z,61.54
2023-05-01T20:14:17.822Z,61.89
2023-05-01T20:16:46.066Z,61.80
2023-05-01T20:19:16.414Z,61.78
2023-05-01T20:21:44.636Z,61.96
2023-05-01T20:24:12.766Z,61.81
2023-05-01T20:26:40.863Z,62.05
2023-05-01T20:29:09.182Z,62.27
2023-05-01T20:31:37.353Z,62.07
2023-05-01T20:34:05.782Z,62.39
2023-05-01T20:36:35.793Z,62.55
2023-05-01T20:39:03.885Z,62.68
2023-05-01T20:41:32.032Z,63.00
2023-05-01T20:44:01.037Z,62.95
2023-05-01T20:46:29.471Z,63.24
2023-05-01T20:48:57.681Z,63.63
2023-05-01T20:51:27.291Z,63.61
2023-05-01T20:53:56.816Z,63.69
2023-05-01T20:56:24.946Z,63.91
2023-05-01T20:58:53.116Z,64.13
2023-05-01T21:01:21.286Z,64.65
2023-05-01T21:03:49.495Z,65.21
2023-05-01T21:06:17.796Z,65.46
2023-05-01T21:08:46.240Z,65.94
2023-05-01T21:11:15.706Z,66.14
2023-05-01T21:13:43.771Z,66.58
2023-05-01T21:16:15.057Z,66.91
2023-05-01T21:18:43.346Z,67.01
2023-05-01T21:21:11.734Z,67.52
2023-05-01T21:23:43.784Z,67.67
2023-05-01T21:26:11.974Z,68.22
2023-05-01T21:28:41.634Z,68.30
2023-05-01T21:31:12.147Z,68.50
2023-05-01T21:33:40.421Z,68.46
2023-05-01T21:36:08.497Z,68.72
2023-05-01T21:38:36.862Z,69.08
2023-05-01T21:41:04.948Z,69.30
2023-05-01T21:43:34.290Z,69.11
2023-05-01T21:46:03.776Z,69.17
2023-05-01T21:48:34.498Z,69.52
2023-05-01T21:51:02.619Z,69.77
2023-05-01T21:53:30.775Z,69.92
2023-05-01T21:55:58.898Z,70.31
2023-05-01T21:58:26.961Z,70.66
2023-05-01T22:00:55.420Z,70.90
2023-05-01T22:03:25.662Z,71.11
2023-05-01T22:05:53.823Z,71.30
2023-05-01T22:08:22.848Z,71.17
2023-05-01T22:10:50.917Z,71.43
2023-05-01T22:13:19.003Z,71.71
2023-05-01T22:15:48.792Z,72.20
2023-05-01T22:18:19.525Z,72.45
2023-05-01T22:20:49.073Z,73.05
2023-05-01T22:23:17.132Z,73.31
2023-05-01T22:25:45.449Z,73.95
2023-05-01T22:28:14.162Z,74.34
2023-05-01T22:30:44.434Z,74.53
2023-05-01T22:33:12.635Z,74.99
2023-05-01T22:35:40.822Z,75.44
2023-05-01T22:38:10.307Z,75.33
2023-05-01T22:40:38.436Z,75.47
2023-05-01T22:43:06.781Z,75.87
2023-05-01T22:45:34.910Z,76.02
2023-05-01T22:48:03.074Z,75.98
2023-05-01T22:50:31.424Z,76.24
2023-05-01T22:53:00.424Z,76.54
2023-05-01T22:55:29.849Z,76.55
2023-05-01T22:57:57.941Z,77.21
2023-05-01T23:00:26.328Z,77.49
2023-05-01T23:02:54.488Z,77.60
2023-05-01T23:05:22.712Z,78.14
2023-05-01T23:07:51.003Z,78.28
2023-05-01T23:10:19.355Z,78.65
2023-05-01T23:12:48.873Z,79.08
2023-05-01T23:15:20.128Z,79.07
2023-05-01T23:17:48.221Z,79.57
2023-05-01T23:20:24.498Z,80.25
2023-05-01T23:22:52.777Z,80.95
2023-05-01T23:25:24.241Z,81.27
2023-05-01T23:27:55.297Z,81.51
2023-05-01T23:30:23.847Z,81.33
2023-05-01T23:32:52.910Z,81.69
2023-05-01T23:35:24.311Z,81.73
2023-05-01T23:37:53.768Z,81.71
2023-05-01T23:40:22.143Z,82.04
2023-05-01T23:42:50.415Z,82.10
2023-05-01T23:45:20.119Z,82.25
2023-05-01T23:47:48.250Z,82.57
2023-05-01T23:50:16.495Z,82.81
2023-05-01T23:52:44.908Z,83.15
2023-05-01T23:55:13.015Z,82.95
2023-05-01T23:57:41.078Z,82.76
